Time;durP1;ratioP1;P1;durP2;ratioP2;P2;SDS_P1;SDS_P2;PMS_P1;PMS_P2;Temp;Humidity;BMP_temperature;BMP_pressure;BME280_temperature;BME280_humidity;BME280_pressure;Samples;Min_cycle;Max_cycle;Signal;HPM_P1;HPM_P2
2021/12/15 00:02:25;;;;;;;2.72;2.53;;;;;;;;;;8285382;28;20038;-63
2021/12/15 00:06:25;;;;;;;2.50;2.30;;;;;;;;;;8282096;28;20018;-63
2021/12/15 00:10:26;;;;;;;2.97;2.53;;;;;;;;;;8290756;28;20032;-63
2021/12/15 00:14:26;;;;;;;2.80;2.60;;;;;;;;;;8284860;28;20518;-63
2021/12/15 00:18:26;;;;;;;2.90;2.35;;;;;;;;;;8286802;28;20038;-63
2021/12/15 00:22:27;;;;;;;2.80;2.47;;;;;;;;;;8287123;28;20116;-63
2021/12/15 00:26:27;;;;;;;2.28;2.08;;;;;;;;;;8289311;28;20144;-63
2021/12/15 00:30:27;;;;;;;2.63;2.42;;;;;;;;;;8291246;28;20444;-63
2021/12/15 00:34:27;;;;;;;2.50;2.30;;;;;;;;;;8285644;28;20785;-63
2021/12/15 00:38:27;;;;;;;2.20;2.00;;;;;;;;;;8285256;28;20763;-63
2021/12/15 00:42:29;;;;;;;2.30;2.10;;;;;;;;;;8288591;28;20037;-63
2021/12/15 00:46:29;;;;;;;2.13;1.95;;;;;;;;;;8286940;28;20292;-63
2021/12/15 00:50:32;;;;;;;2.50;2.30;;;;;;;;;;8289797;28;20116;-63
2021/12/15 00:54:34;;;;;;;2.70;2.50;;;;;;;;;;8285789;28;20728;-63
2021/12/15 00:58:34;;;;;;;2.60;2.40;;;;;;;;;;8285540;28;20021;-63
2021/12/15 01:02:35;;;;;;;2.65;2.22;;;;;;;;;;8280264;28;20100;-63
2021/12/15 01:06:36;;;;;;;2.00;1.90;;;;;;;;;;8285102;28;20053;-63
2021/12/15 01:10:54;;;;;;;2.30;2.10;;;;;;;;;;8283425;28;20030;-63
2021/12/15 01:23:29;;;;;;;2.63;2.25;;;;;;;;;;8284459;28;20479;-63
2021/12/15 01:27:54;;;;;;;2.47;2.28;;;;;;;;;;8284637;28;20045;-63
2021/12/15 01:31:54;;;;;;;2.20;2.00;;;;;;;;;;8286388;28;20045;-63
2021/12/15 01:35:55;;;;;;;2.60;2.10;;;;;;;;;;8285197;28;20062;-63
2021/12/15 01:39:56;;;;;;;2.60;2.05;;;;;;;;;;8284328;28;20268;-63
2021/12/15 01:48:13;;;;;;;2.60;2.40;;;;;;;;;;8281062;28;20058;-63
2021/12/15 01:52:19;;;;;;;3.10;2.60;;;;;;;;;;8282184;28;20037;-63
2021/12/15 01:56:19;;;;;;;3.03;2.42;;;;;;;;;;8283092;28;20550;-63
2021/12/15 02:00:25;;;;;;;2.55;2.35;;;;;;;;;;8247714;28;1084860;-63
2021/12/15 02:04:26;;;;;;;1.88;1.77;;;;;;;;;;8283581;28;20280;-63
2021/12/15 02:08:26;;;;;;;2.00;1.80;;;;;;;;;;8283609;28;20030;-62
2021/12/15 02:12:32;;;;;;;1.98;1.75;;;;;;;;;;8285004;28;20113;-63
2021/12/15 02:16:32;;;;;;;3.88;2.00;;;;;;;;;;8282165;28;20033;-63
2021/12/15 02:20:36;;;;;;;2.00;1.77;;;;;;;;;;8286764;28;20297;-63
2021/12/15 02:24:38;;;;;;;1.90;1.65;;;;;;;;;;8282696;28;20030;-63
2021/12/15 02:28:39;;;;;;;3.05;1.90;;;;;;;;;;8283071;28;20473;-63
2021/12/15 02:32:54;;;;;;;2.20;1.95;;;;;;;;;;8272284;28;20107;-63
2021/12/15 02:37:18;;;;;;;2.08;1.40;;;;;;;;;;8282906;28;20455;-63
2021/12/15 02:41:20;;;;;;;2.10;1.90;;;;;;;;;;8281753;28;20025;-63
2021/12/15 02:45:23;;;;;;;2.00;1.90;;;;;;;;;;8284023;28;20052;-63
2021/12/15 02:49:28;;;;;;;3.42;1.77;;;;;;;;;;8282887;28;20335;-63
2021/12/15 02:53:29;;;;;;;1.90;1.73;;;;;;;;;;8282292;28;20040;-63
2021/12/15 02:57:29;;;;;;;1.50;1.40;;;;;;;;;;8284507;28;20026;-63
2021/12/15 03:01:39;;;;;;;1.70;1.60;;;;;;;;;;8281738;28;20068;-63
2021/12/15 03:05:47;;;;;;;1.75;1.65;;;;;;;;;;8282588;28;20169;-63
2021/12/15 03:18:10;;;;;;;2.08;1.70;;;;;;;;;;8282146;28;20525;-63
2021/12/15 03:22:11;;;;;;;1.83;1.63;;;;;;;;;;8285212;28;20040;-63
2021/12/15 03:26:13;;;;;;;1.93;1.83;;;;;;;;;;8281823;28;20116;-63
2021/12/15 03:34:50;;;;;;;2.22;2.03;;;;;;;;;;8284559;28;20107;-63
2021/12/15 03:38:51;;;;;;;4.32;2.33;;;;;;;;;;8281989;28;20121;-63
2021/12/15 03:42:51;;;;;;;2.90;2.60;;;;;;;;;;8281224;28;20535;-63
2021/12/15 03:46:52;;;;;;;4.72;1.98;;;;;;;;;;8277987;28;20600;-63
2021/12/15 03:50:53;;;;;;;2.35;2.10;;;;;;;;;;8280064;28;20039;-64
2021/12/15 03:54:53;;;;;;;3.20;2.78;;;;;;;;;;8282994;28;20056;-63
2021/12/15 03:58:55;;;;;;;3.20;2.90;;;;;;;;;;8281525;28;20334;-63
2021/12/15 04:02:56;;;;;;;4.50;3.22;;;;;;;;;;8281864;28;20267;-63
2021/12/15 04:06:56;;;;;;;2.78;2.50;;;;;;;;;;8279741;28;20520;-63
2021/12/15 04:10:57;;;;;;;3.60;2.80;;;;;;;;;;8268571;28;20076;-63
2021/12/15 04:15:18;;;;;;;3.15;2.85;;;;;;;;;;8270202;28;20103;-63
2021/12/15 04:19:21;;;;;;;2.92;2.63;;;;;;;;;;8278615;28;20124;-63
2021/12/15 04:23:21;;;;;;;3.58;2.83;;;;;;;;;;8279541;28;20485;-63
2021/12/15 04:27:21;;;;;;;3.47;2.72;;;;;;;;;;8281145;28;20108;-63
2021/12/15 04:31:23;;;;;;;2.97;2.63;;;;;;;;;;8280655;28;20128;-63
2021/12/15 04:35:24;;;;;;;3.28;2.97;;;;;;;;;;8281705;28;20313;-63
2021/12/15 04:39:25;;;;;;;3.15;2.85;;;;;;;;;;8279527;28;20272;-63
2021/12/15 04:43:30;;;;;;;3.28;2.33;;;;;;;;;;8283414;28;20298;-63
2021/12/15 04:47:30;;;;;;;3.50;2.42;;;;;;;;;;8280993;28;20378;-63
2021/12/15 04:51:31;;;;;;;4.47;2.30;;;;;;;;;;8283263;28;20021;-63
2021/12/15 04:55:33;;;;;;;4.43;3.95;;;;;;;;;;8285976;28;20527;-63
2021/12/15 04:59:34;;;;;;;7.45;5.13;;;;;;;;;;8285404;28;20128;-63
2021/12/15 05:03:34;;;;;;;5.75;4.43;;;;;;;;;;8284546;28;20464;-63
2021/12/15 05:07:35;;;;;;;4.85;3.55;;;;;;;;;;8285054;28;20434;-63
2021/12/15 05:11:35;;;;;;;7.07;5.78;;;;;;;;;;8285494;28;20029;-63
2021/12/15 05:15:36;;;;;;;7.93;5.97;;;;;;;;;;8284843;28;20185;-63
2021/12/15 05:19:36;;;;;;;3.55;2.92;;;;;;;;;;8286654;28;20036;-63
2021/12/15 05:23:37;;;;;;;5.50;4.00;;;;;;;;;;8287144;28;20036;-63
2021/12/15 05:27:38;;;;;;;5.32;3.80;;;;;;;;;;8282230;28;20507;-63
2021/12/15 05:31:39;;;;;;;4.20;3.15;;;;;;;;;;8283675;28;20298;-63
2021/12/15 05:35:40;;;;;;;6.47;4.03;;;;;;;;;;8286993;28;20483;-63
2021/12/15 05:39:40;;;;;;;6.82;3.65;;;;;;;;;;8284894;28;20660;-63
2021/12/15 05:43:40;;;;;;;5.20;3.70;;;;;;;;;;8283680;28;20512;-63
2021/12/15 05:47:41;;;;;;;6.47;4.10;;;;;;;;;;8283703;28;20088;-63
2021/12/15 05:51:41;;;;;;;10.90;6.18;;;;;;;;;;8283480;28;21013;-63
2021/12/15 05:55:42;;;;;;;19.40;9.13;;;;;;;;;;8284118;28;20294;-63
2021/12/15 05:59:42;;;;;;;11.40;6.78;;;;;;;;;;8285924;28;20280;-63
2021/12/15 06:03:42;;;;;;;10.70;6.80;;;;;;;;;;8281173;28;20044;-63
2021/12/15 06:07:42;;;;;;;9.70;5.90;;;;;;;;;;8280409;28;20037;-63
2021/12/15 06:11:43;;;;;;;9.43;5.88;;;;;;;;;;8284813;28;21723;-63
2021/12/15 06:15:44;;;;;;;8.73;5.85;;;;;;;;;;8281304;28;20112;-63
2021/12/15 06:19:45;;;;;;;8.80;5.82;;;;;;;;;;8285053;28;20477;-63
2021/12/15 06:23:47;;;;;;;7.28;5.00;;;;;;;;;;8287272;28;20077;-63
2021/12/15 06:27:47;;;;;;;7.55;5.40;;;;;;;;;;8284387;28;20115;-63
2021/12/15 06:31:47;;;;;;;6.45;5.10;;;;;;;;;;8283384;28;20100;-63
2021/12/15 06:35:53;;;;;;;8.60;6.57;;;;;;;;;;8282642;28;20350;-63
2021/12/15 06:39:53;;;;;;;10.15;6.68;;;;;;;;;;8283146;28;20151;-63
2021/12/15 06:43:56;;;;;;;11.68;6.72;;;;;;;;;;8281333;28;20084;-64
2021/12/15 06:57:27;;;;;;;11.82;7.13;;;;;;;;;;8283159;28;20571;-64
2021/12/15 07:00:56;;;;;;;12.23;8.27;;;;;;;;;;8280484;28;20681;-65
2021/12/15 07:04:57;;;;;;;13.63;8.48;;;;;;;;;;8283242;28;20030;-64
2021/12/15 07:08:57;;;;;;;11.45;7.82;;;;;;;;;;8283567;28;20625;-63
2021/12/15 07:12:58;;;;;;;13.15;8.50;;;;;;;;;;8282984;28;20036;-64
2021/12/15 07:16:59;;;;;;;10.88;7.47;;;;;;;;;;8279587;28;20327;-64
2021/12/15 07:21:05;;;;;;;10.20;8.02;;;;;;;;;;8283690;28;20029;-64
2021/12/15 07:25:06;;;;;;;9.93;6.65;;;;;;;;;;8280347;28;20025;-64
2021/12/15 07:29:06;;;;;;;9.43;6.50;;;;;;;;;;8283404;28;20029;-64
2021/12/15 07:33:07;;;;;;;9.23;6.93;;;;;;;;;;8279528;28;20518;-65
2021/12/15 07:37:07;;;;;;;8.85;6.85;;;;;;;;;;8281832;28;20092;-64
2021/12/15 07:41:22;;;;;;;9.60;7.37;;;;;;;;;;8282027;28;20399;-64
2021/12/15 07:45:24;;;;;;;10.13;7.60;;;;;;;;;;8281474;28;20257;-65
2021/12/15 07:49:26;;;;;;;12.50;7.28;;;;;;;;;;8282508;28;20159;-65
2021/12/15 07:53:26;;;;;;;9.98;7.60;;;;;;;;;;8280270;28;20020;-65
2021/12/15 07:57:29;;;;;;;10.32;7.25;;;;;;;;;;8281809;28;20274;-65
2021/12/15 08:01:29;;;;;;;10.20;7.18;;;;;;;;;;8277894;28;20505;-64
2021/12/15 08:05:29;;;;;;;12.30;8.23;;;;;;;;;;8282806;28;20021;-67
2021/12/15 08:09:30;;;;;;;11.65;7.57;;;;;;;;;;8279560;28;20041;-65
2021/12/15 08:13:31;;;;;;;11.82;7.93;;;;;;;;;;8282303;28;21045;-65
2021/12/15 08:17:31;;;;;;;14.85;9.70;;;;;;;;;;8267301;28;20033;-65
2021/12/15 08:21:31;;;;;;;17.33;9.63;;;;;;;;;;8282046;28;20041;-65
2021/12/15 08:25:32;;;;;;;18.90;9.30;;;;;;;;;;8279535;28;20378;-65
2021/12/15 08:29:32;;;;;;;12.18;8.13;;;;;;;;;;8287690;28;20033;-65
2021/12/15 08:33:33;;;;;;;12.05;7.93;;;;;;;;;;8286822;28;20122;-66
2021/12/15 08:37:33;;;;;;;11.75;8.02;;;;;;;;;;8289260;28;20032;-65
2021/12/15 08:41:35;;;;;;;11.98;7.90;;;;;;;;;;8282804;28;20075;-65
2021/12/15 08:45:36;;;;;;;11.60;8.07;;;;;;;;;;8286432;28;20113;-66
2021/12/15 08:49:36;;;;;;;11.77;7.60;;;;;;;;;;8284868;28;20599;-65
2021/12/15 08:53:37;;;;;;;9.77;6.77;;;;;;;;;;8289445;28;20477;-66
2021/12/15 08:57:38;;;;;;;10.00;7.13;;;;;;;;;;8284351;28;20279;-66
2021/12/15 09:01:38;;;;;;;11.77;7.93;;;;;;;;;;8281261;28;20041;-66
2021/12/15 09:05:39;;;;;;;12.63;7.85;;;;;;;;;;8283959;28;20029;-65
2021/12/15 09:09:39;;;;;;;14.07;9.30;;;;;;;;;;8281573;28;20503;-65
2021/12/15 09:13:41;;;;;;;12.65;8.18;;;;;;;;;;8286388;28;20431;-65
2021/12/15 09:17:42;;;;;;;12.32;7.85;;;;;;;;;;8283915;28;20399;-65
2021/12/15 09:21:42;;;;;;;10.55;6.85;;;;;;;;;;8286806;28;20115;-65
2021/12/15 09:25:43;;;;;;;9.77;6.70;;;;;;;;;;8285225;28;20079;-65
2021/12/15 09:29:43;;;;;;;10.82;6.97;;;;;;;;;;8286576;28;21224;-65
2021/12/15 09:33:45;;;;;;;10.10;7.20;;;;;;;;;;8283998;28;20088;-65
2021/12/15 09:37:46;;;;;;;10.65;7.72;;;;;;;;;;8284571;28;20095;-65
2021/12/15 09:41:47;;;;;;;13.70;8.77;;;;;;;;;;8285326;28;20060;-65
2021/12/15 10:20:42;;;;;;;8.32;5.93;;;;;;;;;;8285317;28;20534;-65
2021/12/15 10:24:53;;;;;;;7.57;6.18;;;;;;;;;;8282073;28;20057;-65
2021/12/15 10:28:53;;;;;;;8.68;6.22;;;;;;;;;;8281216;28;20567;-65
2021/12/15 10:33:07;;;;;;;9.18;6.88;;;;;;;;;;8279006;28;20049;-66
2021/12/15 10:37:10;;;;;;;10.50;8.30;;;;;;;;;;8283708;28;20032;-66
2021/12/15 10:41:11;;;;;;;9.43;7.13;;;;;;;;;;8286272;28;20350;-65
2021/12/15 10:45:12;;;;;;;10.45;7.10;;;;;;;;;;8283461;28;20555;-66
2021/12/15 10:49:16;;;;;;;10.98;6.25;;;;;;;;;;8282128;28;20040;-66
2021/12/15 10:53:16;;;;;;;;;;;;;;;;;;8285469;28;20034;-66
2021/12/15 10:57:27;;;;;;;8.32;5.95;;;;;;;;;;8282390;28;20023;-66
2021/12/15 11:01:30;;;;;;;6.97;5.30;;;;;;;;;;8284171;28;20048;-66
2021/12/15 11:05:33;;;;;;;11.43;6.03;;;;;;;;;;8284523;28;20800;-66
2021/12/15 11:09:36;;;;;;;7.55;5.30;;;;;;;;;;8283195;28;20025;-66
2021/12/15 11:13:36;;;;;;;6.60;5.50;;;;;;;;;;8281714;28;20594;-66
2021/12/15 11:17:47;;;;;;;6.22;5.28;;;;;;;;;;8280394;28;20373;-66
2021/12/15 11:21:47;;;;;;;5.25;4.75;;;;;;;;;;8284209;28;20118;-66
2021/12/15 11:25:52;;;;;;;6.75;4.57;;;;;;;;;;8283338;28;20131;-66
2021/12/15 11:29:52;;;;;;;6.45;4.30;;;;;;;;;;8287477;28;20397;-67
2021/12/15 11:34:01;;;;;;;5.67;3.80;;;;;;;;;;8274944;28;20041;-67
2021/12/15 11:38:14;;;;;;;5.45;4.55;;;;;;;;;;8286463;28;20765;-67
2021/12/15 11:42:23;;;;;;;7.28;5.85;;;;;;;;;;8281655;28;20026;-66
2021/12/15 11:46:34;;;;;;;4.72;3.72;;;;;;;;;;8283948;28;20387;-67
2021/12/15 11:50:37;;;;;;;5.47;4.60;;;;;;;;;;8283215;28;20487;-66
2021/12/15 11:54:42;;;;;;;4.83;3.83;;;;;;;;;;8283121;28;20412;-66
2021/12/15 11:58:42;;;;;;;3.85;3.53;;;;;;;;;;8282497;28;20076;-66
2021/12/15 12:02:44;;;;;;;4.88;3.72;;;;;;;;;;8283092;28;20051;-67
2021/12/15 12:06:48;;;;;;;4.53;3.75;;;;;;;;;;8290493;28;20069;-66
2021/12/15 12:10:50;;;;;;;4.40;3.60;;;;;;;;;;8291935;28;20613;-66
2021/12/15 12:14:50;;;;;;;4.47;3.45;;;;;;;;;;8287461;28;20128;-67
2021/12/15 12:19:22;;;;;;;5.28;4.13;;;;;;;;;;8293599;28;20045;-67
2021/12/15 12:23:23;;;;;;;4.43;3.60;;;;;;;;;;8295451;28;20030;-67
2021/12/15 12:27:25;;;;;;;5.13;4.18;;;;;;;;;;8289109;28;20104;-66
2021/12/15 12:31:28;;;;;;;4.15;3.65;;;;;;;;;;8292749;28;20045;-67
2021/12/15 12:35:30;;;;;;;4.75;3.80;;;;;;;;;;8292310;28;20043;-67
2021/12/15 12:39:32;;;;;;;3.80;3.40;;;;;;;;;;8294571;28;20025;-67
2021/12/15 12:43:36;;;;;;;5.60;3.72;;;;;;;;;;8292660;28;20180;-67
2021/12/15 12:47:42;;;;;;;5.05;3.67;;;;;;;;;;8292744;28;20136;-67
2021/12/15 13:00:54;;;;;;;3.95;3.47;;;;;;;;;;8255959;28;20498;-67
2021/12/15 13:04:54;;;;;;;4.03;3.33;;;;;;;;;;8290550;28;20030;-67
2021/12/15 13:09:01;;;;;;;3.22;2.92;;;;;;;;;;8290131;28;20600;-66
2021/12/15 13:13:11;;;;;;;4.30;3.05;;;;;;;;;;8288827;28;20079;-67
2021/12/15 13:17:19;;;;;;;3.72;3.13;;;;;;;;;;8293446;28;20785;-67
2021/12/15 13:21:22;;;;;;;5.53;4.47;;;;;;;;;;8287419;28;20022;-66
2021/12/15 13:29:51;;;;;;;3.67;2.88;;;;;;;;;;8292213;28;20252;-67
2021/12/15 13:33:52;;;;;;;3.53;2.67;;;;;;;;;;8288974;28;20701;-67
2021/12/15 13:38:01;;;;;;;2.45;2.22;;;;;;;;;;8288478;28;20030;-67
2021/12/15 13:42:08;;;;;;;2.58;2.38;;;;;;;;;;8277545;28;20033;-67
2021/12/15 13:46:20;;;;;;;4.07;2.95;;;;;;;;;;8287700;28;20144;-67
2021/12/15 13:50:22;;;;;;;2.65;2.40;;;;;;;;;;8288031;28;20044;-67
2021/12/15 13:54:31;;;;;;;4.25;2.83;;;;;;;;;;8279070;28;20496;-66
2021/12/15 13:58:32;;;;;;;4.07;2.85;;;;;;;;;;8287448;28;20475;-66
2021/12/15 14:02:41;;;;;;;4.13;2.55;;;;;;;;;;8289479;28;20588;-66
2021/12/15 14:06:41;;;;;;;2.72;2.40;;;;;;;;;;8286392;28;20055;-66
2021/12/15 14:10:46;;;;;;;2.60;2.40;;;;;;;;;;8286585;28;20036;-66
2021/12/15 14:14:46;;;;;;;2.65;2.40;;;;;;;;;;8290598;28;20475;-66
2021/12/15 14:18:46;;;;;;;4.97;3.40;;;;;;;;;;8290287;28;20410;-66
2021/12/15 14:22:54;;;;;;;3.88;3.13;;;;;;;;;;8287289;28;21226;-67
2021/12/15 14:26:54;;;;;;;4.05;3.35;;;;;;;;;;8287628;28;20017;-67
2021/12/15 14:31:03;;;;;;;3.22;2.80;;;;;;;;;;8284358;28;20044;-66
2021/12/15 14:35:04;;;;;;;3.05;2.60;;;;;;;;;;8287699;28;20438;-67
2021/12/15 14:39:06;;;;;;;3.33;2.70;;;;;;;;;;8288069;28;20029;-66
2021/12/15 14:43:10;;;;;;;2.60;2.40;;;;;;;;;;8287232;28;20030;-67
2021/12/15 14:47:14;;;;;;;3.10;2.60;;;;;;;;;;8287303;28;20333;-67
2021/12/15 14:51:23;;;;;;;2.90;2.58;;;;;;;;;;8289952;28;20026;-67
2021/12/15 14:55:31;;;;;;;7.43;6.63;;;;;;;;;;8284005;28;20568;-67
2021/12/15 14:59:33;;;;;;;7.13;5.63;;;;;;;;;;8288933;28;20349;-67
2021/12/15 15:03:35;;;;;;;3.88;3.47;;;;;;;;;;8284646;28;20045;-67
2021/12/15 15:07:37;;;;;;;3.92;3.55;;;;;;;;;;8284739;28;20590;-66
2021/12/15 15:11:46;;;;;;;3.80;3.40;;;;;;;;;;8283946;28;20029;-66
2021/12/15 15:15:48;;;;;;;4.47;3.53;;;;;;;;;;8286258;28;20147;-67
2021/12/15 15:19:52;;;;;;;4.60;3.13;;;;;;;;;;8287415;28;20014;-67
2021/12/15 15:23:55;;;;;;;2.80;2.55;;;;;;;;;;8287825;28;20598;-67
2021/12/15 15:27:58;;;;;;;4.03;3.58;;;;;;;;;;8286850;28;20478;-67
2021/12/15 15:32:18;;;;;;;6.87;3.77;;;;;;;;;;8284134;28;20520;-66
2021/12/15 15:36:23;;;;;;;5.50;4.30;;;;;;;;;;8282653;28;20539;-67
2021/12/15 15:40:25;;;;;;;3.88;3.40;;;;;;;;;;8283993;28;20087;-66
2021/12/15 15:44:32;;;;;;;8.02;5.00;;;;;;;;;;8286114;28;20032;-66
2021/12/15 15:48:34;;;;;;;9.65;5.47;;;;;;;;;;8285394;28;20034;-67
2021/12/15 15:52:41;;;;;;;8.80;5.35;;;;;;;;;;8285008;28;20029;-67
2021/12/15 15:56:41;;;;;;;8.20;5.35;;;;;;;;;;8283937;28;20080;-67
2021/12/15 16:00:44;;;;;;;6.53;4.22;;;;;;;;;;8281254;28;20087;-67
2021/12/15 16:04:44;;;;;;;5.90;3.85;;;;;;;;;;8285251;28;20061;-67
2021/12/15 16:08:45;;;;;;;4.10;3.70;;;;;;;;;;8284561;28;20037;-66
2021/12/15 16:12:45;;;;;;;4.55;3.60;;;;;;;;;;8282620;28;20581;-66
2021/12/15 16:17:03;;;;;;;7.22;4.97;;;;;;;;;;8282862;28;20392;-66
2021/12/15 16:25:24;;;;;;;6.43;5.45;;;;;;;;;;8286665;28;20431;-66
2021/12/15 16:29:26;;;;;;;5.10;4.03;;;;;;;;;;8282092;28;20118;-66
2021/12/15 16:33:30;;;;;;;4.50;4.10;;;;;;;;;;8281204;28;20072;-66
2021/12/15 16:37:30;;;;;;;5.15;3.92;;;;;;;;;;8282747;28;20036;-66
2021/12/15 16:41:35;;;;;;;5.35;4.40;;;;;;;;;;8282437;28;20033;-66
2021/12/15 16:45:38;;;;;;;5.50;3.78;;;;;;;;;;8283874;28;20035;-66
2021/12/15 16:49:41;;;;;;;5.40;3.88;;;;;;;;;;8284788;28;20026;-66
2021/12/15 16:53:44;;;;;;;5.32;4.07;;;;;;;;;;8290710;28;20283;-66
2021/12/15 16:57:46;;;;;;;4.78;4.05;;;;;;;;;;8292659;28;20140;-66
2021/12/15 17:01:58;;;;;;;3.30;3.00;;;;;;;;;;8279370;28;20263;-66
2021/12/15 17:05:59;;;;;;;3.55;3.05;;;;;;;;;;8279226;28;20087;-66
2021/12/15 17:10:01;;;;;;;3.60;3.20;;;;;;;;;;8286290;28;20470;-67
2021/12/15 17:14:02;;;;;;;3.30;2.95;;;;;;;;;;8283641;28;20574;-66
2021/12/15 17:18:11;;;;;;;4.50;3.20;;;;;;;;;;8289700;28;20056;-66
2021/12/15 17:22:13;;;;;;;3.97;3.03;;;;;;;;;;8288003;28;20351;-66
2021/12/15 17:26:21;;;;;;;2.50;2.30;;;;;;;;;;8286923;28;20088;-66
2021/12/15 17:30:29;;;;;;;3.80;2.60;;;;;;;;;;8287887;28;20037;-66
2021/12/15 17:34:31;;;;;;;2.88;2.65;;;;;;;;;;8287822;28;20383;-66
2021/12/15 17:38:31;;;;;;;4.20;3.38;;;;;;;;;;8290830;28;20076;-66
2021/12/15 17:42:33;;;;;;;8.77;6.65;;;;;;;;;;8288171;28;20025;-66
2021/12/15 17:46:35;;;;;;;9.52;6.80;;;;;;;;;;8287042;28;20653;-66
2021/12/15 17:50:36;;;;;;;11.23;7.38;;;;;;;;;;8288648;28;20025;-66
2021/12/15 17:54:38;;;;;;;11.27;7.13;;;;;;;;;;8286650;28;20118;-66
2021/12/15 17:58:40;;;;;;;12.63;7.97;;;;;;;;;;8287469;28;20628;-66
2021/12/15 18:02:41;;;;;;;12.90;7.78;;;;;;;;;;8285596;28;20037;-66
2021/12/15 18:06:41;;;;;;;11.43;7.45;;;;;;;;;;8286764;28;20061;-66
2021/12/15 18:10:50;;;;;;;10.57;7.27;;;;;;;;;;8286663;28;20034;-66
2021/12/15 18:14:51;;;;;;;11.80;8.07;;;;;;;;;;8286270;28;20419;-66
2021/12/15 18:18:54;;;;;;;10.88;7.30;;;;;;;;;;8284726;28;20061;-66
2021/12/15 18:22:55;;;;;;;12.97;7.93;;;;;;;;;;8281741;28;20025;-66
2021/12/15 18:26:56;;;;;;;13.35;8.82;;;;;;;;;;8286732;28;20026;-66
2021/12/15 18:30:58;;;;;;;12.60;9.32;;;;;;;;;;8285032;28;20061;-66
2021/12/15 18:34:58;;;;;;;14.60;10.18;;;;;;;;;;8288620;28;20022;-66
2021/12/15 18:38:58;;;;;;;14.23;8.57;;;;;;;;;;8285202;28;20033;-66
2021/12/15 18:42:59;;;;;;;12.10;8.02;;;;;;;;;;8286024;28;20325;-66
2021/12/15 18:46:59;;;;;;;10.20;7.93;;;;;;;;;;8287296;28;20057;-66
2021/12/15 18:51:01;;;;;;;10.68;7.43;;;;;;;;;;8285191;28;20084;-66
2021/12/15 18:55:03;;;;;;;11.50;8.38;;;;;;;;;;8285737;28;20030;-66
2021/12/15 18:59:04;;;;;;;12.30;8.27;;;;;;;;;;8283724;28;20042;-66
2021/12/15 19:03:06;;;;;;;13.13;7.60;;;;;;;;;;8282288;28;20075;-66
2021/12/15 19:07:06;;;;;;;11.43;8.07;;;;;;;;;;8281697;28;20635;-66
2021/12/15 19:11:08;;;;;;;10.93;7.72;;;;;;;;;;8282698;28;20410;-66
2021/12/15 19:15:09;;;;;;;9.90;7.10;;;;;;;;;;8283714;28;20054;-67
2021/12/15 19:19:11;;;;;;;12.07;7.53;;;;;;;;;;8284565;28;20029;-66
2021/12/15 19:23:12;;;;;;;27.40;17.38;;;;;;;;;;8287216;28;20044;-66
2021/12/15 19:27:14;;;;;;;17.27;11.13;;;;;;;;;;8285066;28;20033;-66
2021/12/15 19:31:15;;;;;;;22.02;14.18;;;;;;;;;;8283553;28;20428;-66
2021/12/15 19:35:16;;;;;;;16.60;10.82;;;;;;;;;;8271829;28;20105;-66
2021/12/15 19:39:18;;;;;;;16.15;10.35;;;;;;;;;;8284929;28;20060;-66
2021/12/15 19:43:19;;;;;;;13.27;9.52;;;;;;;;;;8281964;28;20060;-66
2021/12/15 19:47:20;;;;;;;17.13;9.57;;;;;;;;;;8282327;28;20037;-66
2021/12/15 19:51:23;;;;;;;11.68;8.55;;;;;;;;;;8286231;28;20029;-66
2021/12/15 19:55:24;;;;;;;11.52;6.85;;;;;;;;;;8282917;28;20457;-66
2021/12/15 19:59:25;;;;;;;10.57;7.15;;;;;;;;;;8282215;28;20041;-66
2021/12/15 20:03:26;;;;;;;11.68;7.55;;;;;;;;;;8282856;28;20635;-66
2021/12/15 20:07:26;;;;;;;11.82;7.13;;;;;;;;;;8282755;28;20534;-66
2021/12/15 20:11:27;;;;;;;10.10;6.97;;;;;;;;;;8283648;28;20894;-66
2021/12/15 20:15:28;;;;;;;10.57;7.20;;;;;;;;;;8281200;28;20776;-66
2021/12/15 20:19:29;;;;;;;9.30;6.38;;;;;;;;;;8283114;28;20022;-66
2021/12/15 20:23:29;;;;;;;10.48;7.32;;;;;;;;;;8283389;28;20062;-66
2021/12/15 20:27:30;;;;;;;11.05;7.88;;;;;;;;;;8287826;28;20480;-66
2021/12/15 20:31:31;;;;;;;10.88;7.32;;;;;;;;;;8287370;28;20087;-66
2021/12/15 20:35:33;;;;;;;15.25;9.73;;;;;;;;;;8288636;28;20027;-66
2021/12/15 20:39:33;;;;;;;18.58;11.50;;;;;;;;;;8291693;28;20147;-66
2021/12/15 20:43:34;;;;;;;28.85;14.80;;;;;;;;;;8291488;28;20766;-66
2021/12/15 20:47:35;;;;;;;19.27;10.77;;;;;;;;;;8289124;28;20044;-67
2021/12/15 20:51:35;;;;;;;16.30;9.57;;;;;;;;;;8289849;28;20027;-66
2021/12/15 20:55:36;;;;;;;38.00;20.23;;;;;;;;;;8287981;28;20025;-66
2021/12/15 20:59:37;;;;;;;22.55;12.25;;;;;;;;;;8287343;28;20028;-66
2021/12/15 21:03:37;;;;;;;17.40;9.85;;;;;;;;;;8293745;28;20923;-66
2021/12/15 21:07:39;;;;;;;15.87;10.30;;;;;;;;;;8287772;28;20875;-66
2021/12/15 21:11:39;;;;;;;13.57;10.07;;;;;;;;;;8284482;28;20555;-66
2021/12/15 21:15:40;;;;;;;13.65;9.18;;;;;;;;;;8283531;28;20175;-66
2021/12/15 21:19:41;;;;;;;12.43;8.35;;;;;;;;;;8288614;28;20713;-66
2021/12/15 21:23:41;;;;;;;12.38;8.48;;;;;;;;;;8288437;28;21068;-66
2021/12/15 21:27:42;;;;;;;14.82;10.32;;;;;;;;;;8291079;28;20032;-66
2021/12/15 21:31:42;;;;;;;17.27;10.98;;;;;;;;;;8289363;28;20042;-66
2021/12/15 21:35:42;;;;;;;16.83;11.48;;;;;;;;;;8287227;28;20021;-67
2021/12/15 21:39:43;;;;;;;14.55;9.63;;;;;;;;;;8288083;28;21668;-66
2021/12/15 21:43:43;;;;;;;13.13;8.50;;;;;;;;;;8287270;28;20044;-66
2021/12/15 21:47:44;;;;;;;11.75;8.57;;;;;;;;;;8288778;28;20292;-66
2021/12/15 21:51:44;;;;;;;12.38;8.40;;;;;;;;;;8290175;28;20030;-66
2021/12/15 21:55:45;;;;;;;12.50;8.50;;;;;;;;;;8285379;28;20044;-66
2021/12/15 21:59:45;;;;;;;11.13;8.65;;;;;;;;;;8288098;28;20268;-66
2021/12/15 22:03:46;;;;;;;12.18;7.68;;;;;;;;;;8289092;28;20386;-66
2021/12/15 22:07:47;;;;;;;12.80;7.43;;;;;;;;;;8289056;28;20056;-66
2021/12/15 22:11:49;;;;;;;13.23;8.40;;;;;;;;;;8286921;28;20904;-66
2021/12/15 22:15:52;;;;;;;12.52;8.45;;;;;;;;;;8280477;28;20299;-66
2021/12/15 22:19:53;;;;;;;12.23;8.60;;;;;;;;;;8283900;28;20544;-66
2021/12/15 22:24:02;;;;;;;10.57;7.78;;;;;;;;;;8287121;28;20076;-66
2021/12/15 22:28:02;;;;;;;12.10;8.60;;;;;;;;;;8287412;28;20838;-66
2021/12/15 22:32:07;;;;;;;11.68;8.18;;;;;;;;;;8284603;28;20776;-66
2021/12/15 22:36:08;;;;;;;11.80;7.95;;;;;;;;;;8281208;28;20484;-67
2021/12/15 22:40:08;;;;;;;9.57;7.13;;;;;;;;;;8283102;28;20033;-66
2021/12/15 22:44:08;;;;;;;9.95;7.22;;;;;;;;;;8284686;28;20029;-66
2021/12/15 22:48:09;;;;;;;15.83;10.27;;;;;;;;;;8284633;28;20064;-66
2021/12/15 22:52:09;;;;;;;12.27;7.18;;;;;;;;;;8285236;28;20334;-66
2021/12/15 22:56:10;;;;;;;9.25;6.82;;;;;;;;;;8281768;28;20105;-66
2021/12/15 23:00:14;;;;;;;10.70;6.60;;;;;;;;;;8286361;28;20033;-66
2021/12/15 23:04:16;;;;;;;10.27;6.90;;;;;;;;;;8283709;28;20888;-66
2021/12/15 23:08:17;;;;;;;10.52;6.93;;;;;;;;;;8283022;28;20653;-66
2021/12/15 23:12:19;;;;;;;11.75;7.90;;;;;;;;;;8284186;28;20356;-66
2021/12/15 23:16:20;;;;;;;10.77;7.13;;;;;;;;;;8282541;28;20040;-66
2021/12/15 23:20:22;;;;;;;10.82;7.95;;;;;;;;;;8285635;28;20142;-66
2021/12/15 23:24:22;;;;;;;12.25;7.63;;;;;;;;;;8280248;28;20046;-66
2021/12/15 23:28:25;;;;;;;12.68;7.78;;;;;;;;;;8282415;28;20083;-66
2021/12/15 23:32:27;;;;;;;10.70;7.45;;;;;;;;;;8285082;28;20128;-66
2021/12/15 23:36:29;;;;;;;11.85;7.68;;;;;;;;;;8287335;28;20021;-67
